Armington, IL (61721)

7:04 PM CST on February 10, 2016 (GMT -0600)
BFE Armington | | Change Station
CLOSE
Current Station
Personal Weather Station
Location: Armington, IL
Elevation: 627 ft
Nearby Weather Stations

Elev 627 ft 40.34 °N, 89.31 °W | Updated 15 seconds ago

Overcast
Overcast
18.0 °F
Feels Like 11 °F
N
4.7
Wind Variable Wind from West

Today
High -- | Low -- °F
--% Chance of Precip.
Yesterday
High -- | Low -- °F
Precip. -- in
Pressure 30.15 in
Visibility 10.0 miles
Clouds Mostly Cloudy 12000 ft
Windchill 11 °F
Dew Point 10 °F
Humidity 71%
Rainfall 0.00 in
Snow Depth Not available.
6:57 AM 5:26 PM
Waxing Crescent, 8% visible
METAR KAAA 110055Z AUTO 00000KT 10SM BKN120 M07/M12 A3015 RMK AO2 T10671120
Pressure 30.15 in
Visibility 10.0 miles
Clouds Mostly Cloudy 12000 ft
Windchill 11 °F
Dew Point 10 °F
Humidity 71%
Rainfall 0.00 in
Snow Depth Not available.
6:57 AM 5:26 PM
Waxing Crescent, 8% visible
METAR KAAA 110055Z AUTO 00000KT 10SM BKN120 M07/M12 A3015 RMK AO2 T10671120

10-Day Weather Forecast

Almanac

Astronomy

Feb. 10, 2016 Rise Set
Actual Time
Civil Twilight
Nautical Twilight
Astronomical Twilight
Moon
Length of Visible Light
Length of Day
Tomorrow will be .
, % of the Moon is Illuminated

Today's Extremes

State Highs State Lows

Community

WunderPhotos

Upload Photos

1,891,956 photos uploaded!

WunderBlog® & News

Nearby

Air Quality

  Air Quality AQ Index Pollutant
Not available.

Snow Depth

Station Depth Elevation

Earthquake Activity

City Distance Mag. Time & Date
Minimum magnitude displayed is 2.5.

Coastal Water Temperatures

Place Temperature

Stations

Nearby Weather Stations

Station Location Temp. Windchill Dew Point Humidity Wind Precip. Elev Updated Type
                   

Watches & Warnings

There are currently no watches in effect.